createdAt,value
2023-02-07T00:01:23.440Z,102792.78
2023-02-07T00:03:51.952Z,102794.72
2023-02-07T00:06:22.834Z,102794.56
2023-02-07T00:08:51.942Z,102796.59
2023-02-07T00:11:21.300Z,102798.69
2023-02-07T00:13:51.512Z,102795.53
2023-02-07T00:16:20.409Z,102795.34
2023-02-07T00:18:48.463Z,102793.41
2023-02-07T00:21:18.920Z,102797.13
2023-02-07T00:23:47.041Z,102790.94
2023-02-07T00:26:15.593Z,102795.59
2023-02-07T00:28:43.568Z,102792.00
2023-02-07T00:31:23.068Z,102788.66
2023-02-07T00:33:52.005Z,102801.25
2023-02-07T00:36:22.621Z,102792.03
2023-02-07T00:38:51.500Z,102807.62
2023-02-07T00:41:19.999Z,102810.25
2023-02-07T00:43:48.094Z,102814.31
2023-02-07T00:46:16.756Z,102825.22
2023-02-07T00:48:44.870Z,102821.62
2023-02-07T00:51:13.891Z,102815.31
2023-02-07T00:53:41.860Z,102824.50
2023-02-07T00:56:09.371Z,102818.00
2023-02-07T00:58:37.697Z,102826.75
2023-02-07T01:01:05.496Z,102835.91
2023-02-07T01:03:33.553Z,102837.41
2023-02-07T01:06:01.564Z,102838.28
2023-02-07T01:08:29.230Z,102848.00
2023-02-07T01:10:57.848Z,102843.22
2023-02-07T01:13:25.884Z,102842.16
2023-02-07T01:15:53.347Z,102839.31
2023-02-07T01:18:20.878Z,102836.59
2023-02-07T01:20:48.709Z,102831.56
2023-02-07T01:23:16.508Z,102818.25
2023-02-07T01:25:45.020Z,102829.34
2023-02-07T01:28:14.363Z,102829.44
2023-02-07T01:30:43.521Z,102832.78
2023-02-07T01:33:11.354Z,102829.09
2023-02-07T01:35:39.587Z,102828.91
2023-02-07T01:38:08.053Z,102830.84
2023-02-07T01:40:38.023Z,102835.25
2023-02-07T01:43:07.291Z,102830.03
2023-02-07T01:45:40.081Z,102833.22
2023-02-07T01:48:13.232Z,102837.25
2023-02-07T01:50:43.746Z,102834.69
2023-02-07T01:53:13.350Z,102834.91
2023-02-07T01:55:41.359Z,102832.06
2023-02-07T01:58:09.137Z,102820.22
2023-02-07T02:00:37.575Z,102825.34
2023-02-07T02:03:05.636Z,102824.56
2023-02-07T02:05:35.264Z,102829.84
2023-02-07T02:08:03.136Z,102828.97
2023-02-07T02:10:59.514Z,102828.44
2023-02-07T02:13:33.168Z,102828.44
2023-02-07T02:16:25.456Z,102825.78
2023-02-07T02:19:11.353Z,102831.53
2023-02-07T02:21:48.040Z,102824.88
2023-02-07T02:24:50.498Z,102815.41
2023-02-07T02:27:20.912Z,102821.19
2023-02-07T02:30:00.265Z,102813.37
2023-02-07T02:32:49.436Z,102820.09
2023-02-07T02:35:23.848Z,102823.59
2023-02-07T02:38:16.946Z,102818.00
2023-02-07T02:40:51.364Z,102813.09
2023-02-07T02:43:36.241Z,102808.59
2023-02-07T02:46:23.455Z,102811.06
2023-02-07T02:48:51.756Z,102816.94
2023-02-07T02:51:19.764Z,102812.25
2023-02-07T02:53:54.485Z,102808.63
2023-02-07T02:56:45.138Z,102810.47
2023-02-07T02:59:48.664Z,102816.59
2023-02-07T03:02:33.402Z,102826.53
2023-02-07T03:05:13.638Z,102825.12
2023-02-07T03:08:04.774Z,102826.53
2023-02-07T03:10:35.928Z,102830.25
2023-02-07T03:13:18.188Z,102839.47
2023-02-07T03:15:52.084Z,102844.59
2023-02-07T03:18:29.457Z,102833.72
2023-02-07T03:21:12.976Z,102844.44
2023-02-07T03:23:41.164Z,102847.59
2023-02-07T03:26:09.239Z,102856.34
2023-02-07T03:28:37.805Z,102863.19
2023-02-07T03:31:06.733Z,102853.78
2023-02-07T03:33:34.496Z,102857.69
2023-02-07T03:36:24.986Z,102863.69
2023-02-07T03:38:52.848Z,102862.81
2023-02-07T03:41:49.365Z,102856.25
2023-02-07T03:44:17.685Z,102856.16
2023-02-07T03:46:45.196Z,102859.12
2023-02-07T03:49:14.940Z,102854.06
2023-02-07T03:51:42.863Z,102857.59
2023-02-07T03:54:10.630Z,102857.53
2023-02-07T03:56:38.499Z,102846.59
2023-02-07T03:59:06.329Z,102836.97
2023-02-07T04:01:35.053Z,102833.53
2023-02-07T04:04:03.014Z,102826.84
2023-02-07T04:06:30.484Z,102833.44
2023-02-07T04:08:58.129Z,102833.84
2023-02-07T04:11:26.017Z,102836.00
2023-02-07T04:13:53.473Z,102831.97
2023-02-07T04:16:21.033Z,102833.91
2023-02-07T04:18:48.877Z,102843.56
2023-02-07T04:21:16.530Z,102839.31
2023-02-07T04:23:44.029Z,102836.59
2023-02-07T04:26:12.279Z,102839.91
2023-02-07T04:28:39.963Z,102837.19
2023-02-07T04:31:07.633Z,102830.13
2023-02-07T04:33:35.380Z,102831.88
2023-02-07T04:36:03.891Z,102824.59
2023-02-07T04:38:31.827Z,102822.16
2023-02-07T04:41:03.410Z,102822.94
2023-02-07T04:43:36.070Z,102820.16
2023-02-07T04:46:05.143Z,102834.81
2023-02-07T04:48:33.581Z,102834.63
2023-02-07T04:51:01.279Z,102836.09
2023-02-07T04:53:29.204Z,102844.75
2023-02-07T04:55:56.725Z,102851.66
2023-02-07T04:58:24.863Z,102848.78
2023-02-07T05:00:53.510Z,102860.37
2023-02-07T05:03:21.379Z,102857.53
2023-02-07T05:05:48.974Z,102852.25
2023-02-07T05:08:16.866Z,102860.56
2023-02-07T05:10:44.387Z,102853.59
2023-02-07T05:13:12.155Z,102855.38
2023-02-07T05:15:40.220Z,102851.22
2023-02-07T05:18:08.064Z,102853.37
2023-02-07T05:20:35.573Z,102859.97
2023-02-07T05:23:03.553Z,102847.91
2023-02-07T05:25:31.071Z,102861.84
2023-02-07T05:27:58.682Z,102860.09
2023-02-07T05:30:26.538Z,102866.44
2023-02-07T05:33:06.139Z,102865.56
2023-02-07T05:35:35.898Z,102871.16
2023-02-07T05:38:06.453Z,102866.84
2023-02-07T05:40:35.210Z,102867.44
2023-02-07T05:43:03.138Z,102869.88
2023-02-07T05:45:30.707Z,102870.00
2023-02-07T05:47:58.911Z,102874.91
2023-02-07T05:50:26.974Z,102873.44
2023-02-07T05:53:04.712Z,102879.50
2023-02-07T05:55:32.172Z,102875.72
2023-02-07T05:58:00.094Z,102883.38
2023-02-07T06:00:28.547Z,102869.41
2023-02-07T06:02:56.512Z,102876.59
2023-02-07T06:05:24.840Z,102894.97
2023-02-07T06:07:52.675Z,102884.16
2023-02-07T06:10:20.883Z,102890.94
2023-02-07T06:12:48.734Z,102897.41
2023-02-07T06:15:16.282Z,102903.41
2023-02-07T06:17:44.025Z,102902.53
2023-02-07T06:20:12.219Z,102910.47
2023-02-07T06:22:42.307Z,102907.91
2023-02-07T06:25:11.920Z,102902.38
2023-02-07T06:27:40.853Z,102900.13
2023-02-07T06:30:10.760Z,102897.66
2023-02-07T06:32:39.085Z,102903.25
2023-02-07T06:35:07.616Z,102889.44
2023-02-07T06:37:35.134Z,102902.22
2023-02-07T06:40:03.633Z,102906.47
2023-02-07T06:42:31.597Z,102900.91
2023-02-07T06:44:59.107Z,102902.84
2023-02-07T06:47:26.887Z,102892.81
2023-02-07T06:49:54.549Z,102901.66
2023-02-07T06:52:22.183Z,102901.75
2023-02-07T06:54:50.284Z,102909.09
2023-02-07T06:57:17.918Z,102903.63
2023-02-07T06:59:45.564Z,102907.87
2023-02-07T07:02:13.990Z,102909.25
2023-02-07T07:04:42.976Z,102917.13
2023-02-07T07:07:10.548Z,102920.06
2023-02-07T07:09:38.440Z,102922.63
2023-02-07T07:12:06.372Z,102931.53
2023-02-07T07:14:34.048Z,102929.72
2023-02-07T07:17:01.815Z,102933.50
2023-02-07T07:19:29.676Z,102936.06
2023-02-07T07:21:59.103Z,102920.88
2023-02-07T07:24:27.536Z,102923.34
2023-02-07T07:26:56.607Z,102921.56
2023-02-07T07:29:26.327Z,102934.63
2023-02-07T07:31:55.773Z,102937.19
2023-02-07T07:34:28.821Z,102929.44
2023-02-07T07:36:56.766Z,102930.50
2023-02-07T07:39:25.005Z,102923.50
2023-02-07T07:41:52.564Z,102929.81
2023-02-07T07:44:28.665Z,102918.50
2023-02-07T07:46:56.264Z,102923.34
2023-02-07T07:49:24.193Z,102918.31
2023-02-07T07:51:52.004Z,102912.84
2023-02-07T07:54:19.732Z,102917.84
2023-02-07T07:56:47.547Z,102914.53
2023-02-07T07:59:23.637Z,102908.16
2023-02-07T08:01:52.275Z,102924.13
2023-02-07T08:04:20.205Z,102917.75
2023-02-07T08:06:48.166Z,102906.97
2023-02-07T08:09:15.765Z,102921.25
2023-02-07T08:11:43.578Z,102921.78
2023-02-07T08:14:11.281Z,102921.97
2023-02-07T08:16:38.833Z,102908.84
2023-02-07T08:19:06.678Z,102914.25
2023-02-07T08:21:34.348Z,102902.62
2023-02-07T08:24:02.356Z,102912.09
2023-02-07T08:26:30.275Z,102914.09
2023-02-07T08:28:57.815Z,102907.38
2023-02-07T08:31:25.646Z,102894.91
2023-02-07T08:33:54.068Z,102911.53
2023-02-07T08:36:22.119Z,102915.13
2023-02-07T08:38:51.136Z,102912.00
2023-02-07T08:41:19.155Z,102904.41
2023-02-07T08:43:46.780Z,102904.78
2023-02-07T08:46:14.617Z,102901.31
2023-02-07T08:48:43.800Z,102899.78
2023-02-07T08:51:11.552Z,102901.75
2023-02-07T08:53:39.177Z,102902.88
2023-02-07T08:56:09.176Z,102907.13
2023-02-07T08:58:36.805Z,102902.09
2023-02-07T09:01:04.858Z,102903.34
2023-02-07T09:03:39.093Z,102912.97
2023-02-07T09:06:08.576Z,102917.09
2023-02-07T09:08:36.586Z,102909.81
2023-02-07T09:11:09.066Z,102909.03
2023-02-07T09:13:37.206Z,102918.00
2023-02-07T09:16:05.028Z,102911.53
2023-02-07T09:18:32.816Z,102914.66
2023-02-07T09:21:00.934Z,102914.34
2023-02-07T09:23:28.628Z,102903.91
2023-02-07T09:26:01.424Z,102915.00
2023-02-07T09:28:29.583Z,102911.78
2023-02-07T09:30:57.373Z,102913.88
2023-02-07T09:33:25.547Z,102907.56
2023-02-07T09:35:54.786Z,102915.84
2023-02-07T09:38:25.676Z,102912.53
2023-02-07T09:40:54.394Z,102913.88
2023-02-07T09:44:06.119Z,102921.34
2023-02-07T09:46:42.102Z,102919.94
2023-02-07T09:49:17.671Z,102906.47
2023-02-07T09:51:46.045Z,102917.13
2023-02-07T09:54:45.674Z,102912.06
2023-02-07T09:57:18.687Z,102918.69
2023-02-07T09:59:54.092Z,102913.12
2023-02-07T10:02:27.763Z,102917.94
2023-02-07T10:04:59.262Z,102914.19
2023-02-07T10:07:26.914Z,102914.50
2023-02-07T10:09:58.585Z,102912.25
2023-02-07T10:12:51.602Z,102914.75
2023-02-07T10:15:28.733Z,102914.75
2023-02-07T10:18:05.821Z,102910.88
2023-02-07T10:20:39.982Z,102909.38
2023-02-07T10:23:30.643Z,102895.81
2023-02-07T10:26:03.750Z,102906.84
2023-02-07T10:28:50.154Z,102896.41
2023-02-07T10:31:19.311Z,102900.09
2023-02-07T10:33:49.776Z,102895.53
2023-02-07T10:36:18.423Z,102892.44
2023-02-07T10:39:10.320Z,102894.94
2023-02-07T10:41:40.325Z,102888.78
2023-02-07T10:44:18.635Z,102883.13
2023-02-07T10:46:50.086Z,102886.81
2023-02-07T10:49:26.873Z,102874.53
2023-02-07T10:51:59.504Z,102875.94
2023-02-07T10:54:29.185Z,102873.19
2023-02-07T10:57:03.017Z,102862.69
2023-02-07T10:59:45.514Z,102864.03
2023-02-07T11:02:39.319Z,102861.13
2023-02-07T11:05:29.210Z,102860.13
2023-02-07T11:08:01.239Z,102847.25
2023-02-07T11:10:40.733Z,102844.13
2023-02-07T11:13:21.123Z,102842.03
2023-02-07T11:15:57.259Z,102850.75
2023-02-07T11:18:25.034Z,102843.59
2023-02-07T11:20:56.412Z,102846.87
2023-02-07T11:23:25.441Z,102843.75
2023-02-07T11:25:55.011Z,102837.63
2023-02-07T11:28:23.375Z,102837.69
2023-02-07T11:30:58.514Z,102841.53
2023-02-07T11:33:28.375Z,102832.97
2023-02-07T11:36:04.969Z,102829.41
2023-02-07T11:38:51.051Z,102829.59
2023-02-07T11:41:28.764Z,102827.34
2023-02-07T11:44:04.173Z,102828.28
2023-02-07T11:46:42.373Z,102821.72
2023-02-07T11:49:27.395Z,102813.44
2023-02-07T11:52:00.683Z,102815.84
2023-02-07T11:54:29.517Z,102810.97
2023-02-07T11:57:09.614Z,102809.41
2023-02-07T11:59:50.053Z,102813.22
2023-02-07T12:02:24.781Z,102808.75
2023-02-07T12:04:54.855Z,102808.31
2023-02-07T12:07:31.097Z,102793.78
2023-02-07T12:10:06.136Z,102799.91
2023-02-07T12:12:59.906Z,102792.59
2023-02-07T12:15:41.480Z,102794.69
2023-02-07T12:18:38.437Z,102784.81
2023-02-07T12:21:23.970Z,102788.12
2023-02-07T12:24:06.246Z,102784.53
2023-02-07T12:26:45.785Z,102785.56
2023-02-07T12:29:28.499Z,102771.25
2023-02-07T12:32:00.916Z,102768.56
2023-02-07T12:34:45.792Z,102773.84
2023-02-07T12:37:32.288Z,102760.78
2023-02-07T12:40:21.757Z,102771.56
2023-02-07T12:42:57.655Z,102765.31
2023-02-07T12:45:40.169Z,102768.81
2023-02-07T12:48:32.872Z,102766.66
2023-02-07T12:51:13.405Z,102768.59
2023-02-07T12:56:43.345Z,102765.50
2023-02-07T12:59:27.569Z,102750.72
2023-02-07T13:02:40.197Z,102751.06
2023-02-07T13:05:18.147Z,102749.38
2023-02-07T13:07:57.626Z,102748.28
2023-02-07T13:10:38.828Z,102747.00
2023-02-07T13:13:17.869Z,102743.69
2023-02-07T13:15:52.442Z,102754.81
2023-02-07T13:18:46.142Z,102750.56
2023-02-07T13:21:50.673Z,102751.31
2023-02-07T13:24:21.957Z,102750.56
2023-02-07T13:26:59.090Z,102759.44
2023-02-07T13:29:29.680Z,102758.84
2023-02-07T13:32:03.439Z,102766.38
2023-02-07T13:34:59.370Z,102760.69
2023-02-07T13:37:40.593Z,102764.97
2023-02-07T13:40:28.499Z,102767.72
2023-02-07T13:43:01.782Z,102762.37
2023-02-07T13:45:51.624Z,102750.94
2023-02-07T13:48:34.332Z,102769.03
2023-02-07T13:51:27.220Z,102769.16
2023-02-07T13:54:19.455Z,102761.25
2023-02-07T13:57:19.021Z,102767.03
2023-02-07T14:00:08.018Z,102772.47
2023-02-07T14:02:58.792Z,102770.72
2023-02-07T14:05:45.724Z,102773.81
2023-02-07T14:08:16.650Z,102768.91
2023-02-07T14:10:45.836Z,102768.72
2023-02-07T14:13:28.599Z,102770.34
2023-02-07T14:15:59.290Z,102773.13
2023-02-07T14:18:44.339Z,102763.97
2023-02-07T14:21:12.434Z,102765.84
2023-02-07T14:24:10.297Z,102761.22
2023-02-07T14:26:42.866Z,102759.47
2023-02-07T14:29:25.444Z,102757.34
2023-02-07T14:32:01.851Z,102747.03
2023-02-07T14:34:31.820Z,102752.22
2023-02-07T14:37:00.582Z,102758.16
2023-02-07T14:39:31.657Z,102756.22
2023-02-07T14:42:18.944Z,102753.62
2023-02-07T14:44:48.187Z,102757.12
2023-02-07T14:47:28.277Z,102750.22
2023-02-07T14:49:59.126Z,102754.41
2023-02-07T14:52:30.733Z,102739.25
2023-02-07T14:55:01.620Z,102750.69
2023-02-07T14:57:49.655Z,102753.94
2023-02-07T15:00:31.492Z,102757.56
2023-02-07T15:03:09.548Z,102759.28
2023-02-07T15:05:39.389Z,102765.31
2023-02-07T15:08:19.554Z,102746.56
2023-02-07T15:11:02.543Z,102769.28
2023-02-07T15:13:34.563Z,102759.66
2023-02-07T15:16:07.292Z,102756.84
2023-02-07T15:18:45.889Z,102752.31
2023-02-07T15:21:23.929Z,102753.81
2023-02-07T15:23:59.328Z,102765.63
2023-02-07T15:26:30.276Z,102752.56
2023-02-07T15:29:00.780Z,102748.03
2023-02-07T15:31:29.141Z,102748.81
2023-02-07T15:34:00.509Z,102753.59
2023-02-07T15:36:37.980Z,102756.00
2023-02-07T15:39:14.061Z,102760.91
2023-02-07T15:41:42.027Z,102756.00
2023-02-07T15:44:19.544Z,102766.31
2023-02-07T15:46:53.840Z,102756.53
2023-02-07T15:49:29.640Z,102765.03
2023-02-07T15:52:19.380Z,102773.38
2023-02-07T15:54:49.626Z,102780.03
2023-02-07T15:57:29.642Z,102786.78
2023-02-07T16:00:02.443Z,102790.00
2023-02-07T16:02:43.148Z,102794.16
2023-02-07T16:05:31.958Z,102797.47
2023-02-07T16:08:00.662Z,102802.47
2023-02-07T16:10:30.264Z,102804.72
2023-02-07T16:13:06.755Z,102813.37
2023-02-07T16:15:38.074Z,102816.53
2023-02-07T16:18:06.319Z,102819.94
2023-02-07T16:20:35.526Z,102818.72
2023-02-07T16:23:04.674Z,102810.72
2023-02-07T16:25:36.511Z,102815.94
2023-02-07T16:28:08.828Z,102806.41
2023-02-07T16:30:38.000Z,102814.13
2023-02-07T16:33:07.066Z,102802.53
2023-02-07T16:35:34.806Z,102813.66
2023-02-07T16:38:02.523Z,102798.91
2023-02-07T16:40:30.673Z,102806.50
2023-02-07T16:42:58.776Z,102804.78
2023-02-07T16:45:30.007Z,102809.72
2023-02-07T16:47:59.238Z,102809.66
2023-02-07T16:50:29.819Z,102807.94
2023-02-07T16:52:58.115Z,102800.03
2023-02-07T16:55:28.040Z,102805.87
2023-02-07T16:57:56.516Z,102810.88
2023-02-07T17:00:26.351Z,102812.59
2023-02-07T17:02:54.786Z,102815.03
2023-02-07T17:05:22.796Z,102819.09
2023-02-07T17:07:51.234Z,102817.22
2023-02-07T17:10:22.940Z,102814.44
2023-02-07T17:12:50.725Z,102821.19
2023-02-07T17:15:18.429Z,102806.97
2023-02-07T17:17:46.816Z,102831.16
2023-02-07T17:20:21.603Z,102827.72
2023-02-07T17:22:50.843Z,102819.75
2023-02-07T17:25:19.502Z,102817.00
2023-02-07T17:27:47.491Z,102819.59
2023-02-07T17:30:22.575Z,102824.59
2023-02-07T17:32:50.637Z,102823.78
2023-02-07T17:35:20.693Z,102814.91
2023-02-07T17:37:49.509Z,102819.97
2023-02-07T17:40:23.056Z,102818.97
2023-02-07T17:42:51.452Z,102817.06
2023-02-07T17:45:19.562Z,102811.72
2023-02-07T17:47:48.004Z,102821.12
2023-02-07T17:50:18.814Z,102801.22
2023-02-07T17:52:47.203Z,102821.06
2023-02-07T17:55:16.012Z,102825.25
2023-02-07T17:57:44.432Z,102824.22
2023-02-07T18:00:24.604Z,102823.28
2023-02-07T18:02:52.506Z,102822.31
2023-02-07T18:05:21.382Z,102813.66
2023-02-07T18:07:50.945Z,102815.38
2023-02-07T18:10:23.227Z,102814.13
2023-02-07T18:12:51.280Z,102822.63
2023-02-07T18:15:19.649Z,102818.03
2023-02-07T18:17:48.351Z,102812.75
2023-02-07T18:20:22.301Z,102808.22
2023-02-07T18:22:51.496Z,102804.06
2023-02-07T18:25:19.354Z,102806.50
2023-02-07T18:27:48.026Z,102809.59
2023-02-07T18:30:15.922Z,102810.47
2023-02-07T18:32:44.098Z,102814.69
2023-02-07T18:35:11.917Z,102811.19
2023-02-07T18:37:39.770Z,102804.97
2023-02-07T18:40:08.772Z,102811.66
2023-02-07T18:42:36.991Z,102811.66
2023-02-07T18:45:05.861Z,102817.47
2023-02-07T18:47:33.526Z,102812.97
2023-02-07T18:50:01.545Z,102809.97
2023-02-07T18:52:29.888Z,102825.69
2023-02-07T18:54:57.784Z,102817.03
2023-02-07T18:57:25.504Z,102827.00
2023-02-07T18:59:53.742Z,102833.47
2023-02-07T19:02:22.469Z,102814.53
2023-02-07T19:04:50.437Z,102824.88
2023-02-07T19:07:18.782Z,102825.84
2023-02-07T19:09:46.672Z,102818.78
2023-02-07T19:12:14.681Z,102818.69
2023-02-07T19:14:43.054Z,102814.31
2023-02-07T19:17:10.936Z,102818.25
2023-02-07T19:19:38.454Z,102808.72
2023-02-07T19:22:07.040Z,102817.22
2023-02-07T19:24:35.252Z,102796.06
2023-02-07T19:27:03.169Z,102809.87
2023-02-07T19:29:33.306Z,102813.31
2023-02-07T19:32:07.944Z,102812.13
2023-02-07T19:34:37.960Z,102817.09
2023-02-07T19:37:05.617Z,102814.41
2023-02-07T19:39:33.215Z,102813.59
2023-02-07T19:42:01.574Z,102816.22
2023-02-07T19:44:29.859Z,102815.72
2023-02-07T19:46:57.626Z,102819.63
2023-02-07T19:49:26.500Z,102823.00
2023-02-07T19:51:54.475Z,102819.53
2023-02-07T19:54:22.307Z,102822.03
2023-02-07T19:56:50.413Z,102816.75
2023-02-07T19:59:19.010Z,102817.53
2023-02-07T20:01:47.200Z,102829.34
2023-02-07T20:04:15.288Z,102826.69
2023-02-07T20:06:43.120Z,102818.84
2023-02-07T20:09:11.039Z,102824.62
2023-02-07T20:11:39.215Z,102815.22
2023-02-07T20:14:08.154Z,102828.81
2023-02-07T20:16:37.430Z,102824.62
2023-02-07T20:19:07.116Z,102828.66
2023-02-07T20:21:36.375Z,102830.41
2023-02-07T20:24:04.667Z,102831.38
2023-02-07T20:26:34.269Z,102834.66
2023-02-07T20:29:04.894Z,102831.81
2023-02-07T20:31:33.621Z,102825.28
2023-02-07T20:34:02.965Z,102835.78
2023-02-07T20:36:33.562Z,102838.12
2023-02-07T20:39:01.703Z,102842.94
2023-02-07T20:41:29.800Z,102844.00
2023-02-07T20:44:05.069Z,102850.94
2023-02-07T20:46:35.178Z,102848.62
2023-02-07T20:49:16.740Z,102855.38
2023-02-07T20:51:48.668Z,102848.62
2023-02-07T20:54:17.975Z,102851.91
2023-02-07T20:56:46.081Z,102860.41
2023-02-07T20:59:17.429Z,102855.44
2023-02-07T21:01:45.331Z,102853.75
2023-02-07T21:04:14.450Z,102852.00
2023-02-07T21:06:45.257Z,102863.31
2023-02-07T21:09:14.431Z,102861.31
2023-02-07T21:11:47.927Z,102859.63
2023-02-07T21:14:22.614Z,102860.25
2023-02-07T21:16:50.619Z,102865.38
2023-02-07T21:19:19.590Z,102856.47
2023-02-07T21:21:47.506Z,102859.94
2023-02-07T21:24:17.228Z,102859.75
2023-02-07T21:26:48.559Z,102857.06
2023-02-07T21:29:17.782Z,102858.56
2023-02-07T21:31:46.063Z,102853.97
2023-02-07T21:34:15.970Z,102857.97
2023-02-07T21:36:45.027Z,102845.88
2023-02-07T21:39:13.478Z,102858.09
2023-02-07T21:41:43.162Z,102865.25
2023-02-07T21:44:11.877Z,102870.94
2023-02-07T21:46:42.117Z,102862.38
2023-02-07T21:49:16.067Z,102878.56
2023-02-07T21:51:45.773Z,102871.75
2023-02-07T21:54:13.331Z,102877.41
2023-02-07T21:56:42.295Z,102873.75
2023-02-07T21:59:15.658Z,102879.34
2023-02-07T22:01:44.027Z,102881.84
2023-02-07T22:04:12.240Z,102885.69
2023-02-07T22:06:42.376Z,102879.28
2023-02-07T22:09:12.724Z,102873.25
2023-02-07T22:11:40.904Z,102881.91
2023-02-07T22:14:10.106Z,102869.97
2023-02-07T22:16:37.751Z,102882.00
2023-02-07T22:19:06.984Z,102880.31
2023-02-07T22:21:36.558Z,102883.69
2023-02-07T22:24:05.406Z,102877.66
2023-02-07T22:26:33.808Z,102880.94
2023-02-07T22:29:02.295Z,102880.59
2023-02-07T22:31:31.263Z,102870.91
2023-02-07T22:34:01.160Z,102875.22
2023-02-07T22:36:30.862Z,102884.53
2023-02-07T22:39:00.228Z,102878.66
2023-02-07T22:41:28.784Z,102877.87
2023-02-07T22:43:56.328Z,102875.00
2023-02-07T22:46:24.796Z,102872.91
2023-02-07T22:48:53.422Z,102869.47
2023-02-07T22:51:28.896Z,102870.50
2023-02-07T22:53:59.249Z,102876.22
2023-02-07T22:56:27.456Z,102878.66
2023-02-07T22:58:55.289Z,102883.91
2023-02-07T23:01:28.695Z,102862.84
2023-02-07T23:03:57.195Z,102874.41
2023-02-07T23:06:26.000Z,102881.06
2023-02-07T23:08:54.315Z,102877.47
2023-02-07T23:11:23.076Z,102873.66
2023-02-07T23:13:52.054Z,102882.47
2023-02-07T23:16:22.884Z,102869.09
2023-02-07T23:18:53.261Z,102881.41
2023-02-07T23:21:22.472Z,102887.28
2023-02-07T23:23:50.321Z,102880.47
2023-02-07T23:26:20.460Z,102881.63
2023-02-07T23:28:48.101Z,102869.34
2023-02-07T23:31:17.062Z,102884.91
2023-02-07T23:33:45.160Z,102875.28
2023-02-07T23:36:13.112Z,102885.84
2023-02-07T23:38:40.731Z,102887.72
2023-02-07T23:41:09.459Z,102886.22
2023-02-07T23:43:37.474Z,102883.56
2023-02-07T23:46:06.115Z,102888.78
2023-02-07T23:48:37.807Z,102883.28
2023-02-07T23:51:07.000Z,102878.09
2023-02-07T23:53:35.107Z,102870.16
2023-02-07T23:56:04.229Z,102870.78
2023-02-07T23:58:32.752Z,102888.41
